1J6 weather

Bob Lee Flight Strip
Deland, Florida, United States

Public forecast

Using degrees Fahrenheit for public forecast. Weather courtesy of forecast.io.

METAR (pilot weather report)

Closest report is Deland Municipal Sidney H Taylor Field, 2.7 nm (5.1 km) SE. Retrieved 2019/06/17 18:35 UTC (0 seconds ago):

KDED 171835Z AUTO 13009KT 10SM SCT041 BKN050 BKN100 30/22 A3003 RMK AO2 LTG DSNT W AND NW

TAF (pilot weather forecast)

Closest forecast is Daytona Beach International Airport, 14.1 nm (26.2 km) ENE. Retrieved 2019/06/17 18:40 UTC (0 seconds ago):

TAF KDAB 171732Z 1718/1818 14011KT P6SM VCSH SCT035 SCT120 BKN250 FM180000 15005KT P6SM SCT025 BKN100 FM181400 22008KT P6SM SCT020 SCT070 BKN250